sensor_id;sensor_type;location;lat;lon;timestamp;temperature;humidity
11122;DHT22;5615;49.304;10.576;2023-05-10T00:00:18;13.40;99.90
11122;DHT22;5615;49.304;10.576;2023-05-10T00:02:45;13.40;99.90
11122;DHT22;5615;49.304;10.576;2023-05-10T00:05:12;13.40;99.90
11122;DHT22;5615;49.304;10.576;2023-05-10T00:07:39;13.40;99.90
11122;DHT22;5615;49.304;10.576;2023-05-10T00:10:06;13.40;99.90
11122;DHT22;5615;49.304;10.576;2023-05-10T00:12:34;13.50;99.90
11122;DHT22;5615;49.304;10.576;2023-05-10T00:15:01;13.50;99.90
11122;DHT22;5615;49.304;10.576;2023-05-10T00:17:28;13.40;99.90
11122;DHT22;5615;49.304;10.576;2023-05-10T00:19:55;13.30;99.90
11122;DHT22;5615;49.304;10.576;2023-05-10T00:22:21;13.30;99.90
11122;DHT22;5615;49.304;10.576;2023-05-10T00:24:48;13.30;99.90
11122;DHT22;5615;49.304;10.576;2023-05-10T00:27:15;13.40;99.90
11122;DHT22;5615;49.304;10.576;2023-05-10T00:29:43;13.30;99.90
11122;DHT22;5615;49.304;10.576;2023-05-10T00:32:09;13.40;99.90
11122;DHT22;5615;49.304;10.576;2023-05-10T00:34:36;13.30;99.90
11122;DHT22;5615;49.304;10.576;2023-05-10T00:37:02;13.20;99.90
11122;DHT22;5615;49.304;10.576;2023-05-10T00:39:29;13.20;99.90
11122;DHT22;5615;49.304;10.576;2023-05-10T00:41:55;13.20;99.90
11122;DHT22;5615;49.304;10.576;2023-05-10T00:44:22;13.20;99.90
11122;DHT22;5615;49.304;10.576;2023-05-10T00:46:50;13.20;99.90
11122;DHT22;5615;49.304;10.576;2023-05-10T00:49:17;13.20;99.90
11122;DHT22;5615;49.304;10.576;2023-05-10T00:51:44;13.20;99.90
11122;DHT22;5615;49.304;10.576;2023-05-10T00:54:11;13.10;99.90
11122;DHT22;5615;49.304;10.576;2023-05-10T00:56:38;13.20;99.90
11122;DHT22;5615;49.304;10.576;2023-05-10T00:59:05;13.10;99.90
11122;DHT22;5615;49.304;10.576;2023-05-10T01:01:32;13.10;99.90
11122;DHT22;5615;49.304;10.576;2023-05-10T01:04:01;13.10;99.90
11122;DHT22;5615;49.304;10.576;2023-05-10T01:06:28;13.10;99.90
11122;DHT22;5615;49.304;10.576;2023-05-10T01:08:55;13.10;99.90
11122;DHT22;5615;49.304;10.576;2023-05-10T01:11:22;13.10;99.90
11122;DHT22;5615;49.304;10.576;2023-05-10T01:13:54;13.10;99.90
11122;DHT22;5615;49.304;10.576;2023-05-10T01:16:22;13.10;99.90
11122;DHT22;5615;49.304;10.576;2023-05-10T01:18:49;13.10;99.90
11122;DHT22;5615;49.304;10.576;2023-05-10T01:21:27;13.10;99.90
11122;DHT22;5615;49.304;10.576;2023-05-10T01:24:27;13.10;99.90
11122;DHT22;5615;49.304;10.576;2023-05-10T01:30:35;13.10;99.90
11122;DHT22;5615;49.304;10.576;2023-05-10T01:33:11;13.10;99.90
11122;DHT22;5615;49.304;10.576;2023-05-10T01:35:43;13.10;99.90
11122;DHT22;5615;49.304;10.576;2023-05-10T01:38:18;13.10;99.90
11122;DHT22;5615;49.304;10.576;2023-05-10T01:40:52;13.10;99.90
11122;DHT22;5615;49.304;10.576;2023-05-10T01:43:26;13.10;99.90
11122;DHT22;5615;49.304;10.576;2023-05-10T01:46:01;13.10;99.90
11122;DHT22;5615;49.304;10.576;2023-05-10T01:48:36;13.10;99.90
11122;DHT22;5615;49.304;10.576;2023-05-10T01:51:04;13.10;99.90
11122;DHT22;5615;49.304;10.576;2023-05-10T01:53:32;13.10;99.90
11122;DHT22;5615;49.304;10.576;2023-05-10T01:56:00;13.00;99.90
11122;DHT22;5615;49.304;10.576;2023-05-10T01:58:30;12.90;99.90
11122;DHT22;5615;49.304;10.576;2023-05-10T02:00:59;12.70;99.90
11122;DHT22;5615;49.304;10.576;2023-05-10T02:03:28;12.60;99.90
11122;DHT22;5615;49.304;10.576;2023-05-10T02:05:57;12.60;99.90
11122;DHT22;5615;49.304;10.576;2023-05-10T02:08:24;12.50;99.90
11122;DHT22;5615;49.304;10.576;2023-05-10T02:10:54;12.60;99.90
11122;DHT22;5615;49.304;10.576;2023-05-10T02:13:23;12.50;99.90
11122;DHT22;5615;49.304;10.576;2023-05-10T02:15:51;12.50;99.90
11122;DHT22;5615;49.304;10.576;2023-05-10T02:18:19;12.60;99.90
11122;DHT22;5615;49.304;10.576;2023-05-10T02:20:47;12.50;99.90
11122;DHT22;5615;49.304;10.576;2023-05-10T02:23:17;12.40;99.90
11122;DHT22;5615;49.304;10.576;2023-05-10T02:25:45;12.40;99.90
11122;DHT22;5615;49.304;10.576;2023-05-10T02:28:13;12.40;99.90
11122;DHT22;5615;49.304;10.576;2023-05-10T02:30:41;12.40;99.90
11122;DHT22;5615;49.304;10.576;2023-05-10T02:33:08;12.40;99.90
11122;DHT22;5615;49.304;10.576;2023-05-10T02:35:36;12.40;99.90
11122;DHT22;5615;49.304;10.576;2023-05-10T02:38:04;12.40;99.90
11122;DHT22;5615;49.304;10.576;2023-05-10T02:40:35;12.40;99.90
11122;DHT22;5615;49.304;10.576;2023-05-10T02:43:04;12.40;99.90
11122;DHT22;5615;49.304;10.576;2023-05-10T02:45:33;12.30;99.90
11122;DHT22;5615;49.304;10.576;2023-05-10T02:48:01;12.30;99.90
11122;DHT22;5615;49.304;10.576;2023-05-10T02:50:30;12.30;99.90
11122;DHT22;5615;49.304;10.576;2023-05-10T02:53:00;12.30;99.90
11122;DHT22;5615;49.304;10.576;2023-05-10T02:55:32;12.20;99.90
11122;DHT22;5615;49.304;10.576;2023-05-10T02:58:01;12.10;99.90
11122;DHT22;5615;49.304;10.576;2023-05-10T03:00:29;12.10;99.90
11122;DHT22;5615;49.304;10.576;2023-05-10T03:02:55;12.10;99.90
11122;DHT22;5615;49.304;10.576;2023-05-10T03:05:22;12.10;99.90
11122;DHT22;5615;49.304;10.576;2023-05-10T03:07:49;12.00;99.90
11122;DHT22;5615;49.304;10.576;2023-05-10T03:10:16;12.00;99.90
11122;DHT22;5615;49.304;10.576;2023-05-10T03:12:52;12.00;99.90
11122;DHT22;5615;49.304;10.576;2023-05-10T03:15:33;12.00;99.90
11122;DHT22;5615;49.304;10.576;2023-05-10T03:18:07;12.00;99.90
11122;DHT22;5615;49.304;10.576;2023-05-10T03:20:38;12.00;99.90
11122;DHT22;5615;49.304;10.576;2023-05-10T03:23:11;12.00;99.90
11122;DHT22;5615;49.304;10.576;2023-05-10T03:25:39;12.00;99.90
11122;DHT22;5615;49.304;10.576;2023-05-10T03:28:07;12.00;99.90
11122;DHT22;5615;49.304;10.576;2023-05-10T03:30:36;12.00;99.90
11122;DHT22;5615;49.304;10.576;2023-05-10T03:33:06;12.00;99.90
11122;DHT22;5615;49.304;10.576;2023-05-10T03:35:33;12.00;99.90
11122;DHT22;5615;49.304;10.576;2023-05-10T03:38:00;12.00;99.90
11122;DHT22;5615;49.304;10.576;2023-05-10T03:40:27;12.00;99.90
11122;DHT22;5615;49.304;10.576;2023-05-10T03:42:54;11.90;99.90
11122;DHT22;5615;49.304;10.576;2023-05-10T03:45:21;11.90;99.90
11122;DHT22;5615;49.304;10.576;2023-05-10T03:47:49;11.90;99.90
11122;DHT22;5615;49.304;10.576;2023-05-10T03:50:15;11.90;99.90
11122;DHT22;5615;49.304;10.576;2023-05-10T03:52:42;11.90;99.90
11122;DHT22;5615;49.304;10.576;2023-05-10T03:55:09;11.90;99.90
11122;DHT22;5615;49.304;10.576;2023-05-10T03:57:36;11.90;99.90
11122;DHT22;5615;49.304;10.576;2023-05-10T04:00:03;11.90;99.90
11122;DHT22;5615;49.304;10.576;2023-05-10T04:02:30;11.90;99.90
11122;DHT22;5615;49.304;10.576;2023-05-10T04:04:58;11.80;99.90
11122;DHT22;5615;49.304;10.576;2023-05-10T04:07:25;11.80;99.90
11122;DHT22;5615;49.304;10.576;2023-05-10T04:09:51;11.80;99.90
11122;DHT22;5615;49.304;10.576;2023-05-10T04:12:18;11.80;99.90
11122;DHT22;5615;49.304;10.576;2023-05-10T04:14:45;11.80;99.90
11122;DHT22;5615;49.304;10.576;2023-05-10T04:17:11;11.80;99.90
11122;DHT22;5615;49.304;10.576;2023-05-10T04:19:38;11.80;99.90
11122;DHT22;5615;49.304;10.576;2023-05-10T04:22:06;11.80;99.90
11122;DHT22;5615;49.304;10.576;2023-05-10T04:24:32;11.80;99.90
11122;DHT22;5615;49.304;10.576;2023-05-10T04:26:59;11.70;99.90
11122;DHT22;5615;49.304;10.576;2023-05-10T04:29:26;11.70;99.90
11122;DHT22;5615;49.304;10.576;2023-05-10T04:31:52;11.70;99.90
11122;DHT22;5615;49.304;10.576;2023-05-10T04:34:20;11.70;99.90
11122;DHT22;5615;49.304;10.576;2023-05-10T04:36:47;11.70;99.90
11122;DHT22;5615;49.304;10.576;2023-05-10T04:39:14;11.70;99.90
11122;DHT22;5615;49.304;10.576;2023-05-10T04:41:41;11.70;99.90
11122;DHT22;5615;49.304;10.576;2023-05-10T04:44:08;11.60;99.90
11122;DHT22;5615;49.304;10.576;2023-05-10T04:46:34;11.70;99.90
11122;DHT22;5615;49.304;10.576;2023-05-10T04:49:01;11.70;99.90
11122;DHT22;5615;49.304;10.576;2023-05-10T04:51:27;11.60;99.90
11122;DHT22;5615;49.304;10.576;2023-05-10T04:53:54;11.70;99.90
11122;DHT22;5615;49.304;10.576;2023-05-10T04:56:22;11.60;99.90
11122;DHT22;5615;49.304;10.576;2023-05-10T04:58:48;11.70;99.90
11122;DHT22;5615;49.304;10.576;2023-05-10T05:01:15;11.70;99.90
11122;DHT22;5615;49.304;10.576;2023-05-10T05:03:42;11.70;99.90
11122;DHT22;5615;49.304;10.576;2023-05-10T05:06:09;11.80;99.90
11122;DHT22;5615;49.304;10.576;2023-05-10T05:08:35;11.80;99.90
11122;DHT22;5615;49.304;10.576;2023-05-10T05:11:02;11.80;99.90
11122;DHT22;5615;49.304;10.576;2023-05-10T05:13:30;11.90;99.90
11122;DHT22;5615;49.304;10.576;2023-05-10T05:15:56;12.10;99.90
11122;DHT22;5615;49.304;10.576;2023-05-10T05:18:23;12.10;99.90
11122;DHT22;5615;49.304;10.576;2023-05-10T05:20:50;12.20;99.90
11122;DHT22;5615;49.304;10.576;2023-05-10T05:23:16;12.20;99.90
11122;DHT22;5615;49.304;10.576;2023-05-10T05:25:43;12.10;99.90
11122;DHT22;5615;49.304;10.576;2023-05-10T05:28:10;12.20;99.90
11122;DHT22;5615;49.304;10.576;2023-05-10T05:30:38;12.30;99.90
11122;DHT22;5615;49.304;10.576;2023-05-10T05:33:05;12.30;99.90
11122;DHT22;5615;49.304;10.576;2023-05-10T05:35:31;12.30;99.90
11122;DHT22;5615;49.304;10.576;2023-05-10T05:37:58;12.20;99.90
11122;DHT22;5615;49.304;10.576;2023-05-10T05:40:25;12.20;99.90
11122;DHT22;5615;49.304;10.576;2023-05-10T05:42:51;12.20;99.90
11122;DHT22;5615;49.304;10.576;2023-05-10T05:45:18;12.30;99.90
11122;DHT22;5615;49.304;10.576;2023-05-10T05:47:46;12.40;99.90
11122;DHT22;5615;49.304;10.576;2023-05-10T05:50:13;12.40;99.90
11122;DHT22;5615;49.304;10.576;2023-05-10T05:52:40;12.50;99.90
11122;DHT22;5615;49.304;10.576;2023-05-10T05:55:07;12.40;99.90
11122;DHT22;5615;49.304;10.576;2023-05-10T05:57:34;12.50;99.90
11122;DHT22;5615;49.304;10.576;2023-05-10T06:00:00;12.70;99.90
11122;DHT22;5615;49.304;10.576;2023-05-10T06:02:28;12.70;99.90
11122;DHT22;5615;49.304;10.576;2023-05-10T06:04:55;12.80;99.90
11122;DHT22;5615;49.304;10.576;2023-05-10T06:07:22;12.90;99.90
11122;DHT22;5615;49.304;10.576;2023-05-10T06:09:49;13.00;99.90
11122;DHT22;5615;49.304;10.576;2023-05-10T06:12:16;12.90;99.90
11122;DHT22;5615;49.304;10.576;2023-05-10T06:14:42;12.90;99.90
11122;DHT22;5615;49.304;10.576;2023-05-10T06:17:09;12.90;99.90
11122;DHT22;5615;49.304;10.576;2023-05-10T06:19:35;12.80;99.90
11122;DHT22;5615;49.304;10.576;2023-05-10T06:22:03;12.80;99.90
11122;DHT22;5615;49.304;10.576;2023-05-10T06:24:30;12.80;99.90
11122;DHT22;5615;49.304;10.576;2023-05-10T06:26:57;13.00;99.90
11122;DHT22;5615;49.304;10.576;2023-05-10T06:29:25;13.00;99.90
11122;DHT22;5615;49.304;10.576;2023-05-10T06:31:52;13.20;99.90
11122;DHT22;5615;49.304;10.576;2023-05-10T06:34:19;13.40;99.90
11122;DHT22;5615;49.304;10.576;2023-05-10T06:36:46;13.40;99.90
11122;DHT22;5615;49.304;10.576;2023-05-10T06:39:13;13.40;99.90
11122;DHT22;5615;49.304;10.576;2023-05-10T06:41:40;13.30;99.90
11122;DHT22;5615;49.304;10.576;2023-05-10T06:44:07;13.10;99.90
11122;DHT22;5615;49.304;10.576;2023-05-10T06:46:33;13.20;99.90
11122;DHT22;5615;49.304;10.576;2023-05-10T06:49:00;13.30;99.90
11122;DHT22;5615;49.304;10.576;2023-05-10T06:51:27;13.30;99.90
11122;DHT22;5615;49.304;10.576;2023-05-10T06:53:53;13.30;99.90
11122;DHT22;5615;49.304;10.576;2023-05-10T06:56:21;13.40;99.90
11122;DHT22;5615;49.304;10.576;2023-05-10T06:58:48;13.40;99.90
11122;DHT22;5615;49.304;10.576;2023-05-10T07:01:14;13.50;99.90
11122;DHT22;5615;49.304;10.576;2023-05-10T07:03:41;13.50;99.90
11122;DHT22;5615;49.304;10.576;2023-05-10T07:06:08;13.70;99.90
11122;DHT22;5615;49.304;10.576;2023-05-10T07:08:34;13.50;99.90
11122;DHT22;5615;49.304;10.576;2023-05-10T07:11:02;13.40;99.90
11122;DHT22;5615;49.304;10.576;2023-05-10T07:13:30;13.40;99.90
11122;DHT22;5615;49.304;10.576;2023-05-10T07:15:58;13.30;99.90
11122;DHT22;5615;49.304;10.576;2023-05-10T07:18:25;13.40;99.90
11122;DHT22;5615;49.304;10.576;2023-05-10T07:20:51;13.30;99.90
11122;DHT22;5615;49.304;10.576;2023-05-10T07:23:18;13.30;99.90
11122;DHT22;5615;49.304;10.576;2023-05-10T07:25:45;13.40;99.90
11122;DHT22;5615;49.304;10.576;2023-05-10T07:28:12;13.20;99.90
11122;DHT22;5615;49.304;10.576;2023-05-10T07:30:41;13.20;99.90
11122;DHT22;5615;49.304;10.576;2023-05-10T07:33:08;13.40;99.90
11122;DHT22;5615;49.304;10.576;2023-05-10T07:35:35;13.50;99.90
11122;DHT22;5615;49.304;10.576;2023-05-10T07:38:02;13.80;99.90
11122;DHT22;5615;49.304;10.576;2023-05-10T07:40:29;14.00;99.90
11122;DHT22;5615;49.304;10.576;2023-05-10T07:42:55;14.10;99.90
11122;DHT22;5615;49.304;10.576;2023-05-10T07:45:22;14.20;99.90
11122;DHT22;5615;49.304;10.576;2023-05-10T07:47:50;14.30;99.90
11122;DHT22;5615;49.304;10.576;2023-05-10T07:50:17;14.60;99.90
11122;DHT22;5615;49.304;10.576;2023-05-10T07:52:44;14.20;99.90
11122;DHT22;5615;49.304;10.576;2023-05-10T07:55:10;14.50;99.90
11122;DHT22;5615;49.304;10.576;2023-05-10T07:57:37;14.70;99.90
11122;DHT22;5615;49.304;10.576;2023-05-10T08:00:05;14.70;99.90
11122;DHT22;5615;49.304;10.576;2023-05-10T08:02:33;15.00;99.90
11122;DHT22;5615;49.304;10.576;2023-05-10T08:05:01;15.10;99.90
11122;DHT22;5615;49.304;10.576;2023-05-10T08:07:28;14.90;99.90
11122;DHT22;5615;49.304;10.576;2023-05-10T08:09:54;15.00;99.90
11122;DHT22;5615;49.304;10.576;2023-05-10T08:12:21;15.20;99.90
11122;DHT22;5615;49.304;10.576;2023-05-10T08:14:47;15.20;99.90
11122;DHT22;5615;49.304;10.576;2023-05-10T08:17:14;15.10;99.90
11122;DHT22;5615;49.304;10.576;2023-05-10T08:19:41;15.20;99.90
11122;DHT22;5615;49.304;10.576;2023-05-10T08:22:09;15.20;99.90
11122;DHT22;5615;49.304;10.576;2023-05-10T08:24:35;15.10;99.90
11122;DHT22;5615;49.304;10.576;2023-05-10T08:27:04;15.30;99.90
11122;DHT22;5615;49.304;10.576;2023-05-10T08:29:30;15.30;99.90
11122;DHT22;5615;49.304;10.576;2023-05-10T08:31:57;15.30;99.90
11122;DHT22;5615;49.304;10.576;2023-05-10T08:34:23;15.40;99.90
11122;DHT22;5615;49.304;10.576;2023-05-10T08:36:50;15.40;99.90
11122;DHT22;5615;49.304;10.576;2023-05-10T08:39:18;15.60;99.90
11122;DHT22;5615;49.304;10.576;2023-05-10T08:41:46;15.50;99.90
11122;DHT22;5615;49.304;10.576;2023-05-10T08:44:15;15.80;99.90
11122;DHT22;5615;49.304;10.576;2023-05-10T08:46:46;15.90;99.90
11122;DHT22;5615;49.304;10.576;2023-05-10T08:49:14;16.10;99.90
11122;DHT22;5615;49.304;10.576;2023-05-10T08:51:44;16.10;99.90
11122;DHT22;5615;49.304;10.576;2023-05-10T08:54:13;16.10;99.90
11122;DHT22;5615;49.304;10.576;2023-05-10T08:56:42;15.90;99.90
11122;DHT22;5615;49.304;10.576;2023-05-10T08:59:09;15.60;99.90
11122;DHT22;5615;49.304;10.576;2023-05-10T09:01:37;15.70;99.90
11122;DHT22;5615;49.304;10.576;2023-05-10T09:04:03;15.70;99.90
11122;DHT22;5615;49.304;10.576;2023-05-10T09:06:30;16.10;99.90
11122;DHT22;5615;49.304;10.576;2023-05-10T09:08:57;16.40;99.90
11122;DHT22;5615;49.304;10.576;2023-05-10T09:11:25;16.40;99.90
11122;DHT22;5615;49.304;10.576;2023-05-10T09:13:55;15.70;99.90
11122;DHT22;5615;49.304;10.576;2023-05-10T09:16:22;15.70;99.90
11122;DHT22;5615;49.304;10.576;2023-05-10T09:18:49;15.30;99.90
11122;DHT22;5615;49.304;10.576;2023-05-10T09:21:16;15.60;99.90
11122;DHT22;5615;49.304;10.576;2023-05-10T09:23:43;15.60;99.90
11122;DHT22;5615;49.304;10.576;2023-05-10T09:26:10;15.50;99.90
11122;DHT22;5615;49.304;10.576;2023-05-10T09:28:51;15.80;99.90
11122;DHT22;5615;49.304;10.576;2023-05-10T09:31:20;15.70;99.90
11122;DHT22;5615;49.304;10.576;2023-05-10T09:33:47;15.40;99.90
11122;DHT22;5615;49.304;10.576;2023-05-10T09:36:14;15.30;99.90
11122;DHT22;5615;49.304;10.576;2023-05-10T09:38:51;15.00;99.90
11122;DHT22;5615;49.304;10.576;2023-05-10T09:41:19;14.90;99.90
11122;DHT22;5615;49.304;10.576;2023-05-10T09:43:46;14.60;99.90
11122;DHT22;5615;49.304;10.576;2023-05-10T09:46:13;14.50;99.90
11122;DHT22;5615;49.304;10.576;2023-05-10T09:48:45;14.40;99.90
11122;DHT22;5615;49.304;10.576;2023-05-10T09:51:19;14.40;99.90
11122;DHT22;5615;49.304;10.576;2023-05-10T09:53:45;14.40;99.90
11122;DHT22;5615;49.304;10.576;2023-05-10T09:56:12;14.40;99.90
11122;DHT22;5615;49.304;10.576;2023-05-10T09:58:39;14.60;99.90
11122;DHT22;5615;49.304;10.576;2023-05-10T10:01:10;14.80;99.90
11122;DHT22;5615;49.304;10.576;2023-05-10T10:03:41;15.10;99.90
11122;DHT22;5615;49.304;10.576;2023-05-10T10:06:10;15.30;99.90
11122;DHT22;5615;49.304;10.576;2023-05-10T10:08:36;15.40;99.90
11122;DHT22;5615;49.304;10.576;2023-05-10T10:11:03;15.80;99.90
11122;DHT22;5615;49.304;10.576;2023-05-10T10:13:30;16.30;99.90
11122;DHT22;5615;49.304;10.576;2023-05-10T10:15:57;16.70;99.90
11122;DHT22;5615;49.304;10.576;2023-05-10T10:18:24;16.80;99.90
11122;DHT22;5615;49.304;10.576;2023-05-10T10:20:53;17.10;99.90
11122;DHT22;5615;49.304;10.576;2023-05-10T10:23:21;17.70;99.90
11122;DHT22;5615;49.304;10.576;2023-05-10T10:25:49;17.80;99.90
11122;DHT22;5615;49.304;10.576;2023-05-10T10:28:24;18.10;99.90
11122;DHT22;5615;49.304;10.576;2023-05-10T10:30:54;18.10;99.90
11122;DHT22;5615;49.304;10.576;2023-05-10T10:33:39;16.70;99.90
11122;DHT22;5615;49.304;10.576;2023-05-10T10:36:07;15.90;99.90
11122;DHT22;5615;49.304;10.576;2023-05-10T10:38:54;15.50;99.90
11122;DHT22;5615;49.304;10.576;2023-05-10T10:41:29;15.50;99.90
11122;DHT22;5615;49.304;10.576;2023-05-10T10:44:25;15.70;99.90
11122;DHT22;5615;49.304;10.576;2023-05-10T10:47:02;16.20;99.90
11122;DHT22;5615;49.304;10.576;2023-05-10T10:49:31;16.30;99.90
11122;DHT22;5615;49.304;10.576;2023-05-10T10:52:15;16.10;99.90
11122;DHT22;5615;49.304;10.576;2023-05-10T10:54:49;15.70;99.90
11122;DHT22;5615;49.304;10.576;2023-05-10T10:57:18;15.80;99.90
11122;DHT22;5615;49.304;10.576;2023-05-10T10:59:46;15.60;99.90
11122;DHT22;5615;49.304;10.576;2023-05-10T11:02:32;15.20;99.90
11122;DHT22;5615;49.304;10.576;2023-05-10T11:04:59;14.90;99.90
11122;DHT22;5615;49.304;10.576;2023-05-10T11:07:26;14.60;99.90
11122;DHT22;5615;49.304;10.576;2023-05-10T11:09:54;13.70;99.90
11122;DHT22;5615;49.304;10.576;2023-05-10T11:12:21;13.50;99.90
11122;DHT22;5615;49.304;10.576;2023-05-10T11:14:50;13.40;99.90
11122;DHT22;5615;49.304;10.576;2023-05-10T11:17:23;13.50;99.90
11122;DHT22;5615;49.304;10.576;2023-05-10T11:20:06;13.70;99.90
11122;DHT22;5615;49.304;10.576;2023-05-10T11:22:49;13.80;99.90
11122;DHT22;5615;49.304;10.576;2023-05-10T11:25:17;14.10;99.90
11122;DHT22;5615;49.304;10.576;2023-05-10T11:27:44;14.40;99.90
11122;DHT22;5615;49.304;10.576;2023-05-10T11:30:12;14.80;99.90
11122;DHT22;5615;49.304;10.576;2023-05-10T11:32:39;15.00;99.90
11122;DHT22;5615;49.304;10.576;2023-05-10T11:35:07;15.40;99.90
11122;DHT22;5615;49.304;10.576;2023-05-10T11:37:34;15.50;99.90
11122;DHT22;5615;49.304;10.576;2023-05-10T11:40:01;16.10;99.90
11122;DHT22;5615;49.304;10.576;2023-05-10T11:42:30;16.40;99.90
11122;DHT22;5615;49.304;10.576;2023-05-10T11:44:56;16.70;99.90
11122;DHT22;5615;49.304;10.576;2023-05-10T11:47:23;16.60;99.90
11122;DHT22;5615;49.304;10.576;2023-05-10T11:49:50;16.90;99.90
11122;DHT22;5615;49.304;10.576;2023-05-10T11:52:18;17.30;99.90
11122;DHT22;5615;49.304;10.576;2023-05-10T11:54:46;17.40;99.90
11122;DHT22;5615;49.304;10.576;2023-05-10T11:57:18;17.10;99.90
11122;DHT22;5615;49.304;10.576;2023-05-10T11:59:46;16.90;99.90
11122;DHT22;5615;49.304;10.576;2023-05-10T12:02:13;17.40;99.90
11122;DHT22;5615;49.304;10.576;2023-05-10T12:04:40;17.40;99.90
11122;DHT22;5615;49.304;10.576;2023-05-10T12:07:08;17.50;99.90
11122;DHT22;5615;49.304;10.576;2023-05-10T12:09:35;17.50;99.90
11122;DHT22;5615;49.304;10.576;2023-05-10T12:12:02;17.60;99.90
11122;DHT22;5615;49.304;10.576;2023-05-10T12:14:29;17.70;99.90
11122;DHT22;5615;49.304;10.576;2023-05-10T12:17:00;17.30;99.90
11122;DHT22;5615;49.304;10.576;2023-05-10T12:19:26;16.80;99.90
11122;DHT22;5615;49.304;10.576;2023-05-10T12:21:53;16.90;99.90
11122;DHT22;5615;49.304;10.576;2023-05-10T12:24:19;16.50;99.90
11122;DHT22;5615;49.304;10.576;2023-05-10T12:26:46;16.10;99.90
11122;DHT22;5615;49.304;10.576;2023-05-10T12:29:14;15.90;99.90
11122;DHT22;5615;49.304;10.576;2023-05-10T12:31:52;15.80;99.90
11122;DHT22;5615;49.304;10.576;2023-05-10T12:34:25;15.50;99.90
11122;DHT22;5615;49.304;10.576;2023-05-10T12:36:52;15.30;99.90
11122;DHT22;5615;49.304;10.576;2023-05-10T12:39:18;15.20;99.90
11122;DHT22;5615;49.304;10.576;2023-05-10T12:41:45;15.20;99.90
11122;DHT22;5615;49.304;10.576;2023-05-10T12:44:11;15.20;99.90
11122;DHT22;5615;49.304;10.576;2023-05-10T12:46:38;15.40;99.90
11122;DHT22;5615;49.304;10.576;2023-05-10T12:49:05;15.70;99.90
11122;DHT22;5615;49.304;10.576;2023-05-10T12:51:33;16.10;99.90
11122;DHT22;5615;49.304;10.576;2023-05-10T12:53:59;16.20;99.90
11122;DHT22;5615;49.304;10.576;2023-05-10T12:56:26;16.60;99.90
11122;DHT22;5615;49.304;10.576;2023-05-10T12:58:53;16.80;99.90
11122;DHT22;5615;49.304;10.576;2023-05-10T13:01:19;17.20;99.90
11122;DHT22;5615;49.304;10.576;2023-05-10T13:03:46;17.20;99.90
11122;DHT22;5615;49.304;10.576;2023-05-10T13:06:13;17.50;99.90
11122;DHT22;5615;49.304;10.576;2023-05-10T13:08:41;17.60;99.90
11122;DHT22;5615;49.304;10.576;2023-05-10T13:11:08;17.80;99.90
11122;DHT22;5615;49.304;10.576;2023-05-10T13:13:34;18.20;99.90
11122;DHT22;5615;49.304;10.576;2023-05-10T13:16:01;18.60;99.90
11122;DHT22;5615;49.304;10.576;2023-05-10T13:18:28;18.00;99.90
11122;DHT22;5615;49.304;10.576;2023-05-10T13:20:54;17.70;99.90
11122;DHT22;5615;49.304;10.576;2023-05-10T13:23:21;17.50;99.90
11122;DHT22;5615;49.304;10.576;2023-05-10T13:25:49;17.50;99.90
11122;DHT22;5615;49.304;10.576;2023-05-10T13:28:16;17.50;99.90
11122;DHT22;5615;49.304;10.576;2023-05-10T13:30:43;17.90;99.90
11122;DHT22;5615;49.304;10.576;2023-05-10T13:33:09;18.00;99.90
11122;DHT22;5615;49.304;10.576;2023-05-10T13:35:36;17.90;99.90
11122;DHT22;5615;49.304;10.576;2023-05-10T13:38:02;17.80;99.90
11122;DHT22;5615;49.304;10.576;2023-05-10T13:40:29;17.80;99.90
11122;DHT22;5615;49.304;10.576;2023-05-10T13:42:57;17.70;99.90
11122;DHT22;5615;49.304;10.576;2023-05-10T13:45:24;17.50;99.90
11122;DHT22;5615;49.304;10.576;2023-05-10T13:47:50;18.00;99.90
11122;DHT22;5615;49.304;10.576;2023-05-10T13:50:17;18.00;99.90
11122;DHT22;5615;49.304;10.576;2023-05-10T13:52:44;17.70;99.90
11122;DHT22;5615;49.304;10.576;2023-05-10T13:55:10;17.90;99.90
11122;DHT22;5615;49.304;10.576;2023-05-10T13:57:39;17.80;99.90
11122;DHT22;5615;49.304;10.576;2023-05-10T14:00:08;17.80;99.90
11122;DHT22;5615;49.304;10.576;2023-05-10T14:02:35;17.60;99.90
11122;DHT22;5615;49.304;10.576;2023-05-10T14:05:02;17.70;99.90
11122;DHT22;5615;49.304;10.576;2023-05-10T14:07:29;17.80;99.90
11122;DHT22;5615;49.304;10.576;2023-05-10T14:09:56;17.30;99.90
11122;DHT22;5615;49.304;10.576;2023-05-10T14:12:22;17.20;99.90
11122;DHT22;5615;49.304;10.576;2023-05-10T14:14:49;16.90;99.90
11122;DHT22;5615;49.304;10.576;2023-05-10T14:17:17;16.20;99.90
11122;DHT22;5615;49.304;10.576;2023-05-10T14:19:44;15.80;99.90
11122;DHT22;5615;49.304;10.576;2023-05-10T14:22:11;14.90;99.90
11122;DHT22;5615;49.304;10.576;2023-05-10T14:24:38;14.70;99.90
11122;DHT22;5615;49.304;10.576;2023-05-10T14:27:04;14.90;99.90
11122;DHT22;5615;49.304;10.576;2023-05-10T14:29:31;14.90;99.90
11122;DHT22;5615;49.304;10.576;2023-05-10T14:31:58;15.00;99.90
11122;DHT22;5615;49.304;10.576;2023-05-10T14:34:26;14.70;99.90
11122;DHT22;5615;49.304;10.576;2023-05-10T14:36:52;14.50;99.90
11122;DHT22;5615;49.304;10.576;2023-05-10T14:39:19;14.30;99.90
11122;DHT22;5615;49.304;10.576;2023-05-10T14:41:45;14.20;99.90
11122;DHT22;5615;49.304;10.576;2023-05-10T14:44:12;14.10;99.90
11122;DHT22;5615;49.304;10.576;2023-05-10T14:46:40;14.00;99.90
11122;DHT22;5615;49.304;10.576;2023-05-10T14:49:07;13.90;99.90
11122;DHT22;5615;49.304;10.576;2023-05-10T14:51:35;13.90;99.90
11122;DHT22;5615;49.304;10.576;2023-05-10T14:54:02;13.70;99.90
11122;DHT22;5615;49.304;10.576;2023-05-10T14:56:29;13.60;99.90
11122;DHT22;5615;49.304;10.576;2023-05-10T14:58:55;13.70;99.90
11122;DHT22;5615;49.304;10.576;2023-05-10T15:01:22;13.80;99.90
11122;DHT22;5615;49.304;10.576;2023-05-10T15:03:49;14.00;99.90
11122;DHT22;5615;49.304;10.576;2023-05-10T15:06:15;14.10;99.90
11122;DHT22;5615;49.304;10.576;2023-05-10T15:08:43;14.30;99.90
11122;DHT22;5615;49.304;10.576;2023-05-10T15:11:10;14.10;99.90
11122;DHT22;5615;49.304;10.576;2023-05-10T15:13:37;14.40;99.90
11122;DHT22;5615;49.304;10.576;2023-05-10T15:16:03;14.30;99.90
11122;DHT22;5615;49.304;10.576;2023-05-10T15:18:30;14.10;99.90
11122;DHT22;5615;49.304;10.576;2023-05-10T15:20:57;14.20;99.90
11122;DHT22;5615;49.304;10.576;2023-05-10T15:23:24;14.50;99.90
11122;DHT22;5615;49.304;10.576;2023-05-10T15:25:51;14.30;99.90
11122;DHT22;5615;49.304;10.576;2023-05-10T15:28:20;14.50;99.90
11122;DHT22;5615;49.304;10.576;2023-05-10T15:30:47;14.40;99.90
11122;DHT22;5615;49.304;10.576;2023-05-10T15:33:14;14.30;99.90
11122;DHT22;5615;49.304;10.576;2023-05-10T15:35:40;14.50;99.90
11122;DHT22;5615;49.304;10.576;2023-05-10T15:38:07;14.40;99.90